sensor_id;sensor_type;location;lat;lon;timestamp;P1;P2;P0
73233;PMS5003;62293;-26.174;27.908;2022-08-04T00:00:48;31;28;
73233;PMS5003;62293;-26.174;27.908;2022-08-04T00:03:12;27;26;
73233;PMS5003;62293;-26.174;27.908;2022-08-04T00:05:40;23;22;
73233;PMS5003;62293;-26.174;27.908;2022-08-04T00:08:03;27;26;
73233;PMS5003;62293;-26.174;27.908;2022-08-04T00:10:25;26;24;
73233;PMS5003;62293;-26.174;27.908;2022-08-04T00:12:50;27;25;
73233;PMS5003;62293;-26.174;27.908;2022-08-04T00:15:16;29;24;
73233;PMS5003;62293;-26.174;27.908;2022-08-04T00:17:43;22;22;
73233;PMS5003;62293;-26.174;27.908;2022-08-04T00:20:07;24;23;
73233;PMS5003;62293;-26.174;27.908;2022-08-04T00:22:33;23;21;
73233;PMS5003;62293;-26.174;27.908;2022-08-04T00:24:57;27;25;
73233;PMS5003;62293;-26.174;27.908;2022-08-04T00:27:22;25;25;
73233;PMS5003;62293;-26.174;27.908;2022-08-04T00:29:47;26;25;
73233;PMS5003;62293;-26.174;27.908;2022-08-04T00:32:12;23;23;
73233;PMS5003;62293;-26.174;27.908;2022-08-04T00:34:38;26;25;
73233;PMS5003;62293;-26.174;27.908;2022-08-04T00:37:03;23;21;
73233;PMS5003;62293;-26.174;27.908;2022-08-04T00:39:28;21;20;
73233;PMS5003;62293;-26.174;27.908;2022-08-04T00:42:01;19;19;
73233;PMS5003;62293;-26.174;27.908;2022-08-04T00:44:26;24;22;
73233;PMS5003;62293;-26.174;27.908;2022-08-04T00:46:48;23;21;
73233;PMS5003;62293;-26.174;27.908;2022-08-04T00:49:14;26;26;
73233;PMS5003;62293;-26.174;27.908;2022-08-04T00:51:36;24;23;
73233;PMS5003;62293;-26.174;27.908;2022-08-04T00:54:00;22;22;
73233;PMS5003;62293;-26.174;27.908;2022-08-04T00:56:35;19;18;
73233;PMS5003;62293;-26.174;27.908;2022-08-04T00:58:54;21;21;
73233;PMS5003;62293;-26.174;27.908;2022-08-04T01:01:18;22;22;
73233;PMS5003;62293;-26.174;27.908;2022-08-04T01:03:47;25;22;
73233;PMS5003;62293;-26.174;27.908;2022-08-04T01:06:10;29;27;
73233;PMS5003;62293;-26.174;27.908;2022-08-04T01:08:37;22;21;
73233;PMS5003;62293;-26.174;27.908;2022-08-04T01:11:01;19;18;
73233;PMS5003;62293;-26.174;27.908;2022-08-04T01:13:28;23;22;
73233;PMS5003;62293;-26.174;27.908;2022-08-04T01:15:52;21;21;
73233;PMS5003;62293;-26.174;27.908;2022-08-04T01:18:21;22;21;
73233;PMS5003;62293;-26.174;27.908;2022-08-04T01:20:40;21;20;
73233;PMS5003;62293;-26.174;27.908;2022-08-04T01:30:20;15;15;
73233;PMS5003;62293;-26.174;27.908;2022-08-04T01:32:47;18;18;
73233;PMS5003;62293;-26.174;27.908;2022-08-04T01:35:12;19;18;
73233;PMS5003;62293;-26.174;27.908;2022-08-04T01:37:41;16;16;
73233;PMS5003;62293;-26.174;27.908;2022-08-04T01:42:27;21;19;
73233;PMS5003;62293;-26.174;27.908;2022-08-04T01:44:52;17;15;
73233;PMS5003;62293;-26.174;27.908;2022-08-04T01:47:19;22;19;
73233;PMS5003;62293;-26.174;27.908;2022-08-04T01:49:43;17;16;
73233;PMS5003;62293;-26.174;27.908;2022-08-04T01:52:08;20;19;
73233;PMS5003;62293;-26.174;27.908;2022-08-04T01:54:33;22;22;
73233;PMS5003;62293;-26.174;27.908;2022-08-04T01:56:58;17;17;
73233;PMS5003;62293;-26.174;27.908;2022-08-04T01:59:23;17;17;
73233;PMS5003;62293;-26.174;27.908;2022-08-04T02:01:49;23;23;
73233;PMS5003;62293;-26.174;27.908;2022-08-04T02:04:15;20;20;
73233;PMS5003;62293;-26.174;27.908;2022-08-04T02:06:48;17;17;
73233;PMS5003;62293;-26.174;27.908;2022-08-04T02:09:08;20;20;
73233;PMS5003;62293;-26.174;27.908;2022-08-04T02:11:30;21;18;
73233;PMS5003;62293;-26.174;27.908;2022-08-04T02:13:57;16;16;
73233;PMS5003;62293;-26.174;27.908;2022-08-04T02:16:23;16;15;
73233;PMS5003;62293;-26.174;27.908;2022-08-04T02:18:48;16;16;
73233;PMS5003;62293;-26.174;27.908;2022-08-04T02:21:11;14;14;
73233;PMS5003;62293;-26.174;27.908;2022-08-04T02:23:37;20;20;
73233;PMS5003;62293;-26.174;27.908;2022-08-04T02:26:03;15;15;
73233;PMS5003;62293;-26.174;27.908;2022-08-04T02:28:29;18;18;
73233;PMS5003;62293;-26.174;27.908;2022-08-04T02:30:56;19;18;
73233;PMS5003;62293;-26.174;27.908;2022-08-04T02:33:21;18;18;
73233;PMS5003;62293;-26.174;27.908;2022-08-04T02:35:44;17;16;
73233;PMS5003;62293;-26.174;27.908;2022-08-04T02:38:15;19;18;
73233;PMS5003;62293;-26.174;27.908;2022-08-04T02:40:34;18;18;
73233;PMS5003;62293;-26.174;27.908;2022-08-04T02:43:00;18;17;
73233;PMS5003;62293;-26.174;27.908;2022-08-04T02:45:25;15;15;
73233;PMS5003;62293;-26.174;27.908;2022-08-04T02:47:50;19;19;
73233;PMS5003;62293;-26.174;27.908;2022-08-04T02:50:15;16;16;
73233;PMS5003;62293;-26.174;27.908;2022-08-04T02:52:41;21;19;
73233;PMS5003;62293;-26.174;27.908;2022-08-04T02:55:06;18;17;
73233;PMS5003;62293;-26.174;27.908;2022-08-04T02:57:31;20;19;
73233;PMS5003;62293;-26.174;27.908;2022-08-04T03:00:05;20;18;
73233;PMS5003;62293;-26.174;27.908;2022-08-04T03:02:26;17;15;
73233;PMS5003;62293;-26.174;27.908;2022-08-04T03:04:50;15;14;
73233;PMS5003;62293;-26.174;27.908;2022-08-04T03:07:22;16;15;
73233;PMS5003;62293;-26.174;27.908;2022-08-04T03:09:43;16;15;
73233;PMS5003;62293;-26.174;27.908;2022-08-04T03:12:09;20;19;
73233;PMS5003;62293;-26.174;27.908;2022-08-04T03:24:23;17;16;
73233;PMS5003;62293;-26.174;27.908;2022-08-04T03:31:33;17;17;
73233;PMS5003;62293;-26.174;27.908;2022-08-04T03:33:58;15;15;
73233;PMS5003;62293;-26.174;27.908;2022-08-04T03:46:11;21;20;
73233;PMS5003;62293;-26.174;27.908;2022-08-04T03:50:57;19;18;
73233;PMS5003;62293;-26.174;27.908;2022-08-04T03:53:24;18;18;
73233;PMS5003;62293;-26.174;27.908;2022-08-04T03:55:46;18;18;
73233;PMS5003;62293;-26.174;27.908;2022-08-04T04:00:35;18;18;
73233;PMS5003;62293;-26.174;27.908;2022-08-04T04:03:11;21;20;
73233;PMS5003;62293;-26.174;27.908;2022-08-04T04:08:00;17;17;
73233;PMS5003;62293;-26.174;27.908;2022-08-04T04:10:18;20;19;
73233;PMS5003;62293;-26.174;27.908;2022-08-04T04:15:15;17;17;
73233;PMS5003;62293;-26.174;27.908;2022-08-04T04:17:42;16;16;
73233;PMS5003;62293;-26.174;27.908;2022-08-04T04:20:02;24;22;
73233;PMS5003;62293;-26.174;27.908;2022-08-04T04:22:24;20;20;
73233;PMS5003;62293;-26.174;27.908;2022-08-04T04:24:54;17;15;
73233;PMS5003;62293;-26.174;27.908;2022-08-04T04:27:15;18;18;
73233;PMS5003;62293;-26.174;27.908;2022-08-04T04:32:03;16;16;
73233;PMS5003;62293;-26.174;27.908;2022-08-04T04:34:33;17;16;
73233;PMS5003;62293;-26.174;27.908;2022-08-04T04:36:58;20;20;
73233;PMS5003;62293;-26.174;27.908;2022-08-04T04:39:21;17;17;
73233;PMS5003;62293;-26.174;27.908;2022-08-04T04:41:49;20;18;
73233;PMS5003;62293;-26.174;27.908;2022-08-04T04:44:17;16;16;
73233;PMS5003;62293;-26.174;27.908;2022-08-04T04:46:36;17;16;
73233;PMS5003;62293;-26.174;27.908;2022-08-04T04:49:02;17;16;
73233;PMS5003;62293;-26.174;27.908;2022-08-04T04:51:27;16;15;
73233;PMS5003;62293;-26.174;27.908;2022-08-04T04:53:52;17;17;
73233;PMS5003;62293;-26.174;27.908;2022-08-04T04:56:16;17;17;
73233;PMS5003;62293;-26.174;27.908;2022-08-04T04:58:40;17;17;
73233;PMS5003;62293;-26.174;27.908;2022-08-04T05:01:14;21;19;
73233;PMS5003;62293;-26.174;27.908;2022-08-04T05:06:02;18;17;
73233;PMS5003;62293;-26.174;27.908;2022-08-04T05:10:50;17;17;
73233;PMS5003;62293;-26.174;27.908;2022-08-04T05:13:16;16;16;
73233;PMS5003;62293;-26.174;27.908;2022-08-04T05:15:38;19;19;
73233;PMS5003;62293;-26.174;27.908;2022-08-04T05:18:03;17;17;
73233;PMS5003;62293;-26.174;27.908;2022-08-04T05:20:28;18;16;
73233;PMS5003;62293;-26.174;27.908;2022-08-04T05:22:53;17;17;
73233;PMS5003;62293;-26.174;27.908;2022-08-04T05:25:19;17;17;
73233;PMS5003;62293;-26.174;27.908;2022-08-04T05:27:44;17;16;
73233;PMS5003;62293;-26.174;27.908;2022-08-04T05:30:08;15;15;
73233;PMS5003;62293;-26.174;27.908;2022-08-04T05:32:37;18;17;
73233;PMS5003;62293;-26.174;27.908;2022-08-04T05:35:02;21;19;
73233;PMS5003;62293;-26.174;27.908;2022-08-04T05:37:24;23;22;
73233;PMS5003;62293;-26.174;27.908;2022-08-04T05:39:56;19;18;
73233;PMS5003;62293;-26.174;27.908;2022-08-04T05:42:14;19;18;
73233;PMS5003;62293;-26.174;27.908;2022-08-04T05:44:39;19;18;
73233;PMS5003;62293;-26.174;27.908;2022-08-04T05:47:04;17;17;
73233;PMS5003;62293;-26.174;27.908;2022-08-04T05:49:29;18;16;
73233;PMS5003;62293;-26.174;27.908;2022-08-04T05:51:57;22;20;
73233;PMS5003;62293;-26.174;27.908;2022-08-04T05:54:20;15;15;
73233;PMS5003;62293;-26.174;27.908;2022-08-04T05:56:45;18;17;
73233;PMS5003;62293;-26.174;27.908;2022-08-04T05:59:10;17;15;
73233;PMS5003;62293;-26.174;27.908;2022-08-04T06:01:36;17;17;
73233;PMS5003;62293;-26.174;27.908;2022-08-04T06:04:02;17;17;
73233;PMS5003;62293;-26.174;27.908;2022-08-04T06:06:27;13;13;
73233;PMS5003;62293;-26.174;27.908;2022-08-04T06:08:52;16;15;
73233;PMS5003;62293;-26.174;27.908;2022-08-04T06:11:18;17;17;
73233;PMS5003;62293;-26.174;27.908;2022-08-04T06:13:44;17;16;
73233;PMS5003;62293;-26.174;27.908;2022-08-04T06:16:08;20;19;
73233;PMS5003;62293;-26.174;27.908;2022-08-04T06:18:33;21;20;
73233;PMS5003;62293;-26.174;27.908;2022-08-04T06:20:58;17;16;
73233;PMS5003;62293;-26.174;27.908;2022-08-04T06:23:23;17;15;
73233;PMS5003;62293;-26.174;27.908;2022-08-04T06:25:50;17;16;
73233;PMS5003;62293;-26.174;27.908;2022-08-04T06:28:15;15;15;
73233;PMS5003;62293;-26.174;27.908;2022-08-04T06:30:40;18;18;
73233;PMS5003;62293;-26.174;27.908;2022-08-04T06:33:06;18;18;
73233;PMS5003;62293;-26.174;27.908;2022-08-04T06:35:31;18;18;
73233;PMS5003;62293;-26.174;27.908;2022-08-04T06:37:56;18;18;
73233;PMS5003;62293;-26.174;27.908;2022-08-04T06:40:22;17;17;
73233;PMS5003;62293;-26.174;27.908;2022-08-04T06:42:47;16;15;
73233;PMS5003;62293;-26.174;27.908;2022-08-04T06:45:13;20;19;
73233;PMS5003;62293;-26.174;27.908;2022-08-04T06:47:38;19;18;
73233;PMS5003;62293;-26.174;27.908;2022-08-04T06:50:03;16;15;
73233;PMS5003;62293;-26.174;27.908;2022-08-04T06:52:29;16;15;
73233;PMS5003;62293;-26.174;27.908;2022-08-04T06:54:54;14;14;
73233;PMS5003;62293;-26.174;27.908;2022-08-04T06:57:22;18;17;
73233;PMS5003;62293;-26.174;27.908;2022-08-04T06:59:45;22;22;
73233;PMS5003;62293;-26.174;27.908;2022-08-04T07:02:12;17;17;
73233;PMS5003;62293;-26.174;27.908;2022-08-04T07:04:36;18;18;
73233;PMS5003;62293;-26.174;27.908;2022-08-04T07:07:02;17;16;
73233;PMS5003;62293;-26.174;27.908;2022-08-04T07:09:27;18;18;
73233;PMS5003;62293;-26.174;27.908;2022-08-04T07:11:52;17;15;
73233;PMS5003;62293;-26.174;27.908;2022-08-04T07:14:17;19;19;
73233;PMS5003;62293;-26.174;27.908;2022-08-04T07:16:43;18;17;
73233;PMS5003;62293;-26.174;27.908;2022-08-04T07:19:09;21;19;
73233;PMS5003;62293;-26.174;27.908;2022-08-04T07:21:34;16;16;
73233;PMS5003;62293;-26.174;27.908;2022-08-04T07:24:00;19;18;
73233;PMS5003;62293;-26.174;27.908;2022-08-04T07:26:26;18;17;
73233;PMS5003;62293;-26.174;27.908;2022-08-04T07:28:51;21;21;
73233;PMS5003;62293;-26.174;27.908;2022-08-04T07:31:17;14;14;
73233;PMS5003;62293;-26.174;27.908;2022-08-04T07:33:43;17;17;
73233;PMS5003;62293;-26.174;27.908;2022-08-04T07:36:08;18;18;
73233;PMS5003;62293;-26.174;27.908;2022-08-04T07:38:33;17;15;
73233;PMS5003;62293;-26.174;27.908;2022-08-04T07:40:59;18;18;
73233;PMS5003;62293;-26.174;27.908;2022-08-04T07:43:25;16;14;
73233;PMS5003;62293;-26.174;27.908;2022-08-04T07:45:50;12;11;
73233;PMS5003;62293;-26.174;27.908;2022-08-04T07:48:15;15;15;
73233;PMS5003;62293;-26.174;27.908;2022-08-04T07:50:41;18;17;
73233;PMS5003;62293;-26.174;27.908;2022-08-04T07:53:06;17;16;
73233;PMS5003;62293;-26.174;27.908;2022-08-04T07:55:32;19;16;
73233;PMS5003;62293;-26.174;27.908;2022-08-04T07:57:57;18;18;
73233;PMS5003;62293;-26.174;27.908;2022-08-04T08:00:23;19;17;
73233;PMS5003;62293;-26.174;27.908;2022-08-04T08:02:49;17;16;
73233;PMS5003;62293;-26.174;27.908;2022-08-04T08:05:13;20;19;
73233;PMS5003;62293;-26.174;27.908;2022-08-04T08:07:39;15;15;
73233;PMS5003;62293;-26.174;27.908;2022-08-04T08:10:04;16;16;
73233;PMS5003;62293;-26.174;27.908;2022-08-04T08:12:29;16;16;
73233;PMS5003;62293;-26.174;27.908;2022-08-04T08:14:54;16;15;
73233;PMS5003;62293;-26.174;27.908;2022-08-04T08:17:20;16;16;
73233;PMS5003;62293;-26.174;27.908;2022-08-04T08:19:46;20;20;
73233;PMS5003;62293;-26.174;27.908;2022-08-04T08:22:11;18;17;
73233;PMS5003;62293;-26.174;27.908;2022-08-04T08:24:37;19;19;
73233;PMS5003;62293;-26.174;27.908;2022-08-04T08:27:03;18;18;
73233;PMS5003;62293;-26.174;27.908;2022-08-04T08:29:28;21;19;
73233;PMS5003;62293;-26.174;27.908;2022-08-04T08:31:54;17;15;
73233;PMS5003;62293;-26.174;27.908;2022-08-04T08:34:19;18;17;
73233;PMS5003;62293;-26.174;27.908;2022-08-04T08:36:45;19;19;
73233;PMS5003;62293;-26.174;27.908;2022-08-04T08:39:12;21;19;
73233;PMS5003;62293;-26.174;27.908;2022-08-04T08:44:09;20;19;
73233;PMS5003;62293;-26.174;27.908;2022-08-04T08:48:57;16;15;
73233;PMS5003;62293;-26.174;27.908;2022-08-04T08:51:32;15;14;
73233;PMS5003;62293;-26.174;27.908;2022-08-04T08:53:49;19;18;
73233;PMS5003;62293;-26.174;27.908;2022-08-04T08:56:11;19;17;
73233;PMS5003;62293;-26.174;27.908;2022-08-04T08:58:40;17;16;
73233;PMS5003;62293;-26.174;27.908;2022-08-04T09:01:05;15;14;
73233;PMS5003;62293;-26.174;27.908;2022-08-04T09:03:37;17;17;
73233;PMS5003;62293;-26.174;27.908;2022-08-04T09:05:56;18;18;
73233;PMS5003;62293;-26.174;27.908;2022-08-04T09:10:44;19;18;
73233;PMS5003;62293;-26.174;27.908;2022-08-04T09:13:09;14;13;
73233;PMS5003;62293;-26.174;27.908;2022-08-04T09:15:35;18;17;
73233;PMS5003;62293;-26.174;27.908;2022-08-04T09:18:01;14;14;
73233;PMS5003;62293;-26.174;27.908;2022-08-04T09:20:27;16;15;
73233;PMS5003;62293;-26.174;27.908;2022-08-04T09:22:50;17;15;
73233;PMS5003;62293;-26.174;27.908;2022-08-04T09:25:17;17;15;
73233;PMS5003;62293;-26.174;27.908;2022-08-04T09:27:44;14;13;
73233;PMS5003;62293;-26.174;27.908;2022-08-04T09:30:06;15;14;
73233;PMS5003;62293;-26.174;27.908;2022-08-04T09:32:33;17;14;
73233;PMS5003;62293;-26.174;27.908;2022-08-04T09:35:00;15;14;
73233;PMS5003;62293;-26.174;27.908;2022-08-04T09:37:24;18;16;
73233;PMS5003;62293;-26.174;27.908;2022-08-04T09:39:51;15;14;
73233;PMS5003;62293;-26.174;27.908;2022-08-04T09:42:16;13;13;
73233;PMS5003;62293;-26.174;27.908;2022-08-04T09:44:43;16;15;
73233;PMS5003;62293;-26.174;27.908;2022-08-04T09:47:04;17;17;
73233;PMS5003;62293;-26.174;27.908;2022-08-04T09:49:30;14;13;
73233;PMS5003;62293;-26.174;27.908;2022-08-04T09:51:57;16;16;
73233;PMS5003;62293;-26.174;27.908;2022-08-04T09:54:22;17;16;
73233;PMS5003;62293;-26.174;27.908;2022-08-04T09:56:51;15;15;
73233;PMS5003;62293;-26.174;27.908;2022-08-04T09:59:16;15;15;
73233;PMS5003;62293;-26.174;27.908;2022-08-04T10:01:37;16;14;
73233;PMS5003;62293;-26.174;27.908;2022-08-04T12:19:15;22;19;
73233;PMS5003;62293;-26.174;27.908;2022-08-04T12:21:38;21;20;
73233;PMS5003;62293;-26.174;27.908;2022-08-04T12:24:04;24;24;
73233;PMS5003;62293;-26.174;27.908;2022-08-04T12:26:30;26;23;
73233;PMS5003;62293;-26.174;27.908;2022-08-04T12:28:57;22;21;
73233;PMS5003;62293;-26.174;27.908;2022-08-04T12:31:20;25;24;
73233;PMS5003;62293;-26.174;27.908;2022-08-04T12:33:48;26;24;
73233;PMS5003;62293;-26.174;27.908;2022-08-04T12:36:18;29;28;
73233;PMS5003;62293;-26.174;27.908;2022-08-04T12:38:36;21;20;
73233;PMS5003;62293;-26.174;27.908;2022-08-04T12:41:01;29;27;
73233;PMS5003;62293;-26.174;27.908;2022-08-04T12:43:28;21;21;
73233;PMS5003;62293;-26.174;27.908;2022-08-04T12:45:52;23;23;
73233;PMS5003;62293;-26.174;27.908;2022-08-04T12:48:19;22;21;
73233;PMS5003;62293;-26.174;27.908;2022-08-04T12:50:46;21;21;
73233;PMS5003;62293;-26.174;27.908;2022-08-04T12:53:11;25;24;
73233;PMS5003;62293;-26.174;27.908;2022-08-04T12:55:34;22;22;
73233;PMS5003;62293;-26.174;27.908;2022-08-04T12:58:00;22;22;
73233;PMS5003;62293;-26.174;27.908;2022-08-04T13:00:26;19;19;
73233;PMS5003;62293;-26.174;27.908;2022-08-04T13:02:50;24;23;
73233;PMS5003;62293;-26.174;27.908;2022-08-04T13:05:16;33;33;
73233;PMS5003;62293;-26.174;27.908;2022-08-04T13:07:42;22;22;
73233;PMS5003;62293;-26.174;27.908;2022-08-04T13:10:10;28;28;
73233;PMS5003;62293;-26.174;27.908;2022-08-04T13:12:33;28;27;
73233;PMS5003;62293;-26.174;27.908;2022-08-04T13:14:59;27;25;
73233;PMS5003;62293;-26.174;27.908;2022-08-04T13:17:24;27;26;
73233;PMS5003;62293;-26.174;27.908;2022-08-04T13:19:50;27;25;
73233;PMS5003;62293;-26.174;27.908;2022-08-04T13:24:41;41;39;
73233;PMS5003;62293;-26.174;27.908;2022-08-04T13:27:08;30;28;
73233;PMS5003;62293;-26.174;27.908;2022-08-04T13:29:33;31;30;
73233;PMS5003;62293;-26.174;27.908;2022-08-04T13:31:58;29;29;
73233;PMS5003;62293;-26.174;27.908;2022-08-04T13:34:24;35;32;
73233;PMS5003;62293;-26.174;27.908;2022-08-04T13:36:50;30;30;
73233;PMS5003;62293;-26.174;27.908;2022-08-04T13:39:16;30;30;
73233;PMS5003;62293;-26.174;27.908;2022-08-04T13:41:42;30;26;
73233;PMS5003;62293;-26.174;27.908;2022-08-04T13:44:07;31;29;
73233;PMS5003;62293;-26.174;27.908;2022-08-04T13:46:33;32;32;
73233;PMS5003;62293;-26.174;27.908;2022-08-04T13:48:58;27;26;
73233;PMS5003;62293;-26.174;27.908;2022-08-04T13:51:24;28;27;
73233;PMS5003;62293;-26.174;27.908;2022-08-04T13:56:14;27;27;
73233;PMS5003;62293;-26.174;27.908;2022-08-04T13:58:41;26;25;
73233;PMS5003;62293;-26.174;27.908;2022-08-04T14:01:06;28;28;
73233;PMS5003;62293;-26.174;27.908;2022-08-04T14:03:32;33;32;
73233;PMS5003;62293;-26.174;27.908;2022-08-04T14:08:22;31;30;
73233;PMS5003;62293;-26.174;27.908;2022-08-04T14:13:12;29;27;
73233;PMS5003;62293;-26.174;27.908;2022-08-04T14:15:38;31;30;
73233;PMS5003;62293;-26.174;27.908;2022-08-04T14:20:28;30;30;
73233;PMS5003;62293;-26.174;27.908;2022-08-04T14:22:54;26;26;
73233;PMS5003;62293;-26.174;27.908;2022-08-04T14:25:19;29;28;
73233;PMS5003;62293;-26.174;27.908;2022-08-04T14:27:45;31;30;
73233;PMS5003;62293;-26.174;27.908;2022-08-04T14:32:36;31;29;
73233;PMS5003;62293;-26.174;27.908;2022-08-04T14:37:27;25;24;
73233;PMS5003;62293;-26.174;27.908;2022-08-04T14:39:53;27;26;
73233;PMS5003;62293;-26.174;27.908;2022-08-04T14:42:18;28;26;
73233;PMS5003;62293;-26.174;27.908;2022-08-04T14:44:52;35;32;
73233;PMS5003;62293;-26.174;27.908;2022-08-04T14:47:09;28;28;
73233;PMS5003;62293;-26.174;27.908;2022-08-04T14:49:35;29;28;
73233;PMS5003;62293;-26.174;27.908;2022-08-04T14:52:00;26;24;
73233;PMS5003;62293;-26.174;27.908;2022-08-04T14:54:27;28;27;
73233;PMS5003;62293;-26.174;27.908;2022-08-04T14:56:51;31;30;
73233;PMS5003;62293;-26.174;27.908;2022-08-04T14:59:17;27;26;
73233;PMS5003;62293;-26.174;27.908;2022-08-04T15:01:42;30;29;
73233;PMS5003;62293;-26.174;27.908;2022-08-04T15:04:09;31;29;
73233;PMS5003;62293;-26.174;27.908;2022-08-04T15:06:33;31;31;
73233;PMS5003;62293;-26.174;27.908;2022-08-04T15:08:59;30;29;
73233;PMS5003;62293;-26.174;27.908;2022-08-04T15:11:24;30;29;
73233;PMS5003;62293;-26.174;27.908;2022-08-04T15:13:49;35;33;
73233;PMS5003;62293;-26.174;27.908;2022-08-04T15:16:14;34;33;
73233;PMS5003;62293;-26.174;27.908;2022-08-04T15:18:41;30;29;
73233;PMS5003;62293;-26.174;27.908;2022-08-04T15:21:05;35;32;
73233;PMS5003;62293;-26.174;27.908;2022-08-04T15:23:30;30;29;
73233;PMS5003;62293;-26.174;27.908;2022-08-04T15:25:56;37;36;
73233;PMS5003;62293;-26.174;27.908;2022-08-04T15:28:22;32;32;
73233;PMS5003;62293;-26.174;27.908;2022-08-04T15:30:47;31;28;
73233;PMS5003;62293;-26.174;27.908;2022-08-04T15:33:14;29;29;
73233;PMS5003;62293;-26.174;27.908;2022-08-04T15:35:38;31;31;
73233;PMS5003;62293;-26.174;27.908;2022-08-04T15:38:05;28;27;
73233;PMS5003;62293;-26.174;27.908;2022-08-04T15:40:35;30;29;
73233;PMS5003;62293;-26.174;27.908;2022-08-04T15:43:01;31;31;
73233;PMS5003;62293;-26.174;27.908;2022-08-04T15:45:21;30;29;
73233;PMS5003;62293;-26.174;27.908;2022-08-04T15:50:11;33;33;
73233;PMS5003;62293;-26.174;27.908;2022-08-04T16:00:03;34;33;
73233;PMS5003;62293;-26.174;27.908;2022-08-04T16:05:06;31;31;
73233;PMS5003;62293;-26.174;27.908;2022-08-04T16:07:11;32;32;
73233;PMS5003;62293;-26.174;27.908;2022-08-04T16:09:35;32;32;
73233;PMS5003;62293;-26.174;27.908;2022-08-04T16:12:01;36;35;
73233;PMS5003;62293;-26.174;27.908;2022-08-04T16:14:30;31;30;
73233;PMS5003;62293;-26.174;27.908;2022-08-04T16:16:51;36;35;
73233;PMS5003;62293;-26.174;27.908;2022-08-04T16:19:21;32;30;
73233;PMS5003;62293;-26.174;27.908;2022-08-04T16:21:46;28;28;
73233;PMS5003;62293;-26.174;27.908;2022-08-04T16:24:12;33;32;
73233;PMS5003;62293;-26.174;27.908;2022-08-04T16:28:59;35;34;
73233;PMS5003;62293;-26.174;27.908;2022-08-04T16:31:24;46;44;
73233;PMS5003;62293;-26.174;27.908;2022-08-04T16:33:50;44;43;
73233;PMS5003;62293;-26.174;27.908;2022-08-04T16:36:21;41;40;
73233;PMS5003;62293;-26.174;27.908;2022-08-04T16:41:06;47;47;
73233;PMS5003;62293;-26.174;27.908;2022-08-04T16:43:32;48;46;
73233;PMS5003;62293;-26.174;27.908;2022-08-04T16:45:58;37;35;
73233;PMS5003;62293;-26.174;27.908;2022-08-04T16:48:24;38;37;
73233;PMS5003;62293;-26.174;27.908;2022-08-04T16:50:50;37;35;
73233;PMS5003;62293;-26.174;27.908;2022-08-04T16:53:14;35;33;
73233;PMS5003;62293;-26.174;27.908;2022-08-04T16:55:40;33;30;
73233;PMS5003;62293;-26.174;27.908;2022-08-04T16:58:05;37;33;
73233;PMS5003;62293;-26.174;27.908;2022-08-04T17:00:33;37;36;
73233;PMS5003;62293;-26.174;27.908;2022-08-04T17:02:56;34;34;
73233;PMS5003;62293;-26.174;27.908;2022-08-04T17:05:22;41;40;
73233;PMS5003;62293;-26.174;27.908;2022-08-04T17:07:49;38;35;
73233;PMS5003;62293;-26.174;27.908;2022-08-04T17:10:13;40;37;
73233;PMS5003;62293;-26.174;27.908;2022-08-04T17:12:38;41;37;
73233;PMS5003;62293;-26.174;27.908;2022-08-04T17:15:04;37;36;
73233;PMS5003;62293;-26.174;27.908;2022-08-04T17:17:29;35;34;
73233;PMS5003;62293;-26.174;27.908;2022-08-04T17:19:55;41;40;
73233;PMS5003;62293;-26.174;27.908;2022-08-04T17:22:20;36;35;
73233;PMS5003;62293;-26.174;27.908;2022-08-04T17:24:46;37;36;
73233;PMS5003;62293;-26.174;27.908;2022-08-04T17:27:11;30;30;
73233;PMS5003;62293;-26.174;27.908;2022-08-04T17:29:37;36;35;
73233;PMS5003;62293;-26.174;27.908;2022-08-04T17:32:02;31;31;
73233;PMS5003;62293;-26.174;27.908;2022-08-04T17:34:28;41;38;
73233;PMS5003;62293;-26.174;27.908;2022-08-04T17:36:53;35;34;
73233;PMS5003;62293;-26.174;27.908;2022-08-04T17:39:19;41;39;
73233;PMS5003;62293;-26.174;27.908;2022-08-04T17:41:45;38;37;
73233;PMS5003;62293;-26.174;27.908;2022-08-04T17:44:10;36;36;
73233;PMS5003;62293;-26.174;27.908;2022-08-04T17:46:36;39;36;
73233;PMS5003;62293;-26.174;27.908;2022-08-04T17:49:03;35;35;
73233;PMS5003;62293;-26.174;27.908;2022-08-04T17:53:56;40;39;
73233;PMS5003;62293;-26.174;27.908;2022-08-04T17:58:41;38;38;
73233;PMS5003;62293;-26.174;27.908;2022-08-04T18:01:06;39;38;
